createdAt,value
2018-03-07T00:01:36.080Z,0.00
2018-03-07T00:02:36.143Z,0.00
2018-03-07T00:04:29.675Z,0.00
2018-03-07T00:05:29.686Z,0.00
2018-03-07T00:07:22.688Z,0.00
2018-03-07T00:08:22.726Z,0.00
2018-03-07T00:10:15.711Z,0.00
2018-03-07T00:11:15.766Z,0.00
2018-03-07T00:13:08.767Z,0.00
2018-03-07T00:14:08.803Z,0.00
2018-03-07T00:16:01.791Z,0.00
2018-03-07T00:17:01.843Z,0.00
2018-03-07T00:18:54.860Z,0.00
2018-03-07T00:19:54.889Z,0.00
2018-03-07T00:21:47.869Z,0.00
2018-03-07T00:22:47.925Z,0.00
2018-03-07T00:24:40.935Z,0.00
2018-03-07T00:25:40.971Z,0.00
2018-03-07T00:27:33.953Z,0.00
2018-03-07T00:28:34.011Z,0.00
2018-03-07T00:30:27.009Z,0.00
2018-03-07T00:31:27.046Z,0.00
2018-03-07T00:33:20.031Z,0.00
2018-03-07T00:34:20.088Z,0.00
2018-03-07T00:36:13.091Z,0.00
2018-03-07T00:37:13.129Z,0.00
2018-03-07T00:39:06.114Z,0.00
2018-03-07T00:40:06.173Z,0.00
2018-03-07T00:41:59.176Z,0.00
2018-03-07T00:42:59.217Z,0.00
2018-03-07T00:44:52.215Z,0.00
2018-03-07T00:45:52.252Z,0.00
2018-03-07T00:47:45.238Z,0.00
2018-03-07T00:48:45.296Z,0.00
2018-03-07T00:50:38.298Z,0.00
2018-03-07T00:51:38.335Z,0.00
2018-03-07T00:53:31.321Z,0.00
2018-03-07T00:54:31.373Z,0.00
2018-03-07T00:56:24.376Z,0.00
2018-03-07T00:57:24.416Z,0.00
2018-03-07T00:59:17.395Z,0.00
2018-03-07T01:00:17.455Z,0.00
2018-03-07T01:02:10.455Z,0.00
2018-03-07T01:03:10.495Z,0.00
2018-03-07T01:05:03.983Z,0.00
2018-03-07T01:06:04.040Z,0.00
2018-03-07T01:07:57.039Z,0.00
2018-03-07T01:08:57.381Z,0.00
2018-03-07T01:10:50.063Z,0.00
2018-03-07T01:11:50.120Z,0.00
2018-03-07T01:13:43.125Z,0.00
2018-03-07T01:14:43.172Z,0.00
2018-03-07T01:16:36.165Z,0.00
2018-03-07T01:17:36.201Z,0.00
2018-03-07T01:19:29.186Z,0.00
2018-03-07T01:20:29.245Z,0.00
2018-03-07T01:22:22.246Z,0.00
2018-03-07T01:23:22.283Z,0.00
2018-03-07T01:25:15.264Z,0.00
2018-03-07T01:26:15.323Z,0.00
2018-03-07T01:28:08.329Z,0.00
2018-03-07T01:29:08.367Z,0.00
2018-03-07T01:31:01.354Z,0.00
2018-03-07T01:32:01.413Z,0.00
2018-03-07T01:33:54.408Z,0.00
2018-03-07T01:34:54.445Z,0.00
2018-03-07T01:36:47.446Z,0.00
2018-03-07T01:37:47.483Z,0.00
2018-03-07T01:39:40.485Z,0.00
2018-03-07T01:40:40.521Z,0.00
2018-03-07T01:42:33.521Z,0.00
2018-03-07T01:43:33.559Z,0.00
2018-03-07T01:45:26.550Z,0.00
2018-03-07T01:46:26.607Z,0.00
2018-03-07T01:48:19.608Z,0.00
2018-03-07T01:49:19.654Z,0.00
2018-03-07T01:51:12.631Z,0.00
2018-03-07T01:52:12.689Z,0.00
2018-03-07T01:54:05.689Z,0.00
2018-03-07T01:55:05.728Z,0.00
2018-03-07T01:56:58.726Z,0.00
2018-03-07T01:57:58.765Z,0.00
2018-03-07T01:59:51.764Z,0.00
2018-03-07T02:00:51.802Z,0.00
2018-03-07T02:02:44.807Z,0.00
2018-03-07T02:03:44.846Z,0.00
2018-03-07T02:05:37.832Z,0.00
2018-03-07T02:06:37.884Z,0.00
2018-03-07T02:08:30.887Z,0.00
2018-03-07T02:09:30.922Z,0.00
2018-03-07T02:11:23.903Z,0.00
2018-03-07T02:12:23.960Z,0.00
2018-03-07T02:14:16.958Z,0.00
2018-03-07T02:15:16.997Z,0.00
2018-03-07T02:17:09.976Z,0.00
2018-03-07T02:18:10.034Z,0.00
2018-03-07T02:20:03.039Z,0.00
2018-03-07T02:21:03.078Z,0.00
2018-03-07T02:22:56.077Z,0.00
2018-03-07T02:23:56.114Z,0.00
2018-03-07T02:25:49.093Z,0.00
2018-03-07T02:26:49.152Z,0.00
2018-03-07T02:28:42.151Z,0.00
2018-03-07T02:29:42.189Z,0.00
2018-03-07T02:31:35.174Z,0.00
2018-03-07T02:32:35.231Z,0.00
2018-03-07T02:34:28.232Z,0.00
2018-03-07T02:35:28.270Z,0.00
2018-03-07T02:37:21.259Z,0.00
2018-03-07T02:38:21.307Z,0.00
2018-03-07T02:40:14.314Z,0.00
2018-03-07T02:41:14.352Z,0.00
2018-03-07T02:43:07.375Z,0.00
2018-03-07T02:44:07.412Z,0.00
2018-03-07T02:46:00.393Z,0.00
2018-03-07T02:47:00.449Z,0.00
2018-03-07T02:48:53.454Z,0.00
2018-03-07T02:49:53.491Z,0.00
2018-03-07T02:51:46.471Z,0.00
2018-03-07T02:52:46.529Z,0.00
2018-03-07T02:54:39.530Z,0.00
2018-03-07T02:55:39.569Z,0.00
2018-03-07T02:57:32.553Z,0.00
2018-03-07T02:58:32.605Z,0.00
2018-03-07T03:00:25.607Z,0.00
2018-03-07T03:01:25.642Z,0.00
2018-03-07T03:03:18.643Z,0.00
2018-03-07T03:04:18.682Z,0.00
2018-03-07T03:06:11.663Z,0.00
2018-03-07T03:07:11.715Z,0.00
2018-03-07T03:09:04.720Z,0.00
2018-03-07T03:10:04.756Z,0.00
2018-03-07T03:11:57.747Z,0.00
2018-03-07T03:12:57.803Z,0.00
2018-03-07T03:14:50.803Z,0.00
2018-03-07T03:15:50.842Z,0.00
2018-03-07T03:17:43.825Z,0.00
2018-03-07T03:18:43.883Z,0.00
2018-03-07T03:20:36.885Z,0.00
2018-03-07T03:21:36.922Z,0.00
2018-03-07T03:23:29.924Z,0.00
2018-03-07T03:24:29.958Z,0.00
2018-03-07T03:26:22.937Z,0.00
2018-03-07T03:27:22.994Z,0.00
2018-03-07T03:29:15.995Z,0.00
2018-03-07T03:30:16.034Z,0.00
2018-03-07T03:32:09.017Z,0.00
2018-03-07T03:33:09.070Z,0.00
2018-03-07T03:35:02.079Z,0.00
2018-03-07T03:36:02.116Z,0.00
2018-03-07T03:37:55.093Z,0.00
2018-03-07T03:38:55.150Z,0.00
2018-03-07T03:40:48.146Z,0.00
2018-03-07T03:41:48.183Z,0.00
2018-03-07T03:43:41.183Z,0.00
2018-03-07T03:44:41.220Z,0.00
2018-03-07T03:46:34.205Z,0.00
2018-03-07T03:47:34.262Z,0.00
2018-03-07T03:49:27.264Z,0.00
2018-03-07T03:50:27.304Z,0.00
2018-03-07T03:52:20.288Z,0.00
2018-03-07T03:53:20.346Z,0.00
2018-03-07T03:55:13.346Z,0.00
2018-03-07T03:56:13.383Z,0.00
2018-03-07T03:58:06.363Z,0.00
2018-03-07T03:59:06.419Z,0.00
2018-03-07T04:00:59.420Z,0.00
2018-03-07T04:01:59.457Z,0.00
2018-03-07T04:03:52.465Z,0.00
2018-03-07T04:04:52.502Z,0.00
2018-03-07T04:06:45.481Z,0.00
2018-03-07T04:07:45.538Z,0.00
2018-03-07T04:09:38.535Z,0.00
2018-03-07T04:10:38.573Z,0.00
2018-03-07T04:12:31.552Z,0.00
2018-03-07T04:13:31.611Z,0.00
2018-03-07T04:15:24.609Z,0.00
2018-03-07T04:16:24.646Z,0.00
2018-03-07T04:18:17.631Z,0.00
2018-03-07T04:19:17.687Z,0.00
2018-03-07T04:21:10.684Z,0.00
2018-03-07T04:22:10.720Z,0.00
2018-03-07T04:24:03.721Z,0.00
2018-03-07T04:25:03.758Z,0.00
2018-03-07T04:26:56.743Z,0.00
2018-03-07T04:27:56.796Z,0.00
2018-03-07T04:29:49.797Z,0.00
2018-03-07T04:30:49.834Z,0.00
2018-03-07T04:32:42.820Z,0.00
2018-03-07T04:33:42.872Z,0.00
2018-03-07T04:35:35.880Z,0.00
2018-03-07T04:36:35.913Z,0.00
2018-03-07T04:38:28.899Z,0.00
2018-03-07T04:39:28.952Z,0.00
2018-03-07T04:41:21.953Z,0.00
2018-03-07T04:42:21.988Z,0.00
2018-03-07T04:44:14.986Z,0.00
2018-03-07T04:45:15.025Z,0.00
2018-03-07T04:47:08.009Z,0.00
2018-03-07T04:48:08.065Z,0.00
2018-03-07T04:50:01.070Z,0.00
2018-03-07T04:51:01.108Z,0.00
2018-03-07T04:52:54.086Z,0.00
2018-03-07T04:53:54.142Z,0.00
2018-03-07T04:55:47.144Z,0.00
2018-03-07T04:56:47.179Z,0.00
2018-03-07T04:58:40.164Z,0.00
2018-03-07T04:59:40.218Z,0.00
2018-03-07T05:01:33.256Z,0.00
2018-03-07T05:02:33.256Z,0.00
2018-03-07T05:04:26.258Z,0.00
2018-03-07T05:05:26.296Z,0.00
2018-03-07T05:07:19.282Z,0.00
2018-03-07T05:08:19.334Z,0.00
2018-03-07T05:10:12.334Z,0.00
2018-03-07T05:11:12.369Z,0.00
2018-03-07T05:13:05.355Z,0.00
2018-03-07T05:14:05.410Z,0.00
2018-03-07T05:15:58.445Z,0.00
2018-03-07T05:16:58.451Z,0.00
2018-03-07T05:18:51.939Z,0.00
2018-03-07T05:19:51.997Z,0.00
2018-03-07T05:21:44.997Z,0.00
2018-03-07T05:22:45.035Z,0.00
2018-03-07T05:24:38.030Z,0.00
2018-03-07T05:25:38.067Z,0.00
2018-03-07T05:27:31.051Z,0.00
2018-03-07T05:28:31.109Z,0.00
2018-03-07T05:30:24.114Z,0.00
2018-03-07T05:31:24.154Z,0.00
2018-03-07T05:33:17.132Z,0.00
2018-03-07T05:34:17.187Z,4.00
2018-03-07T05:36:10.184Z,0.00
2018-03-07T05:37:10.221Z,4.00
2018-03-07T05:39:03.229Z,4.00
2018-03-07T05:40:03.277Z,8.00
2018-03-07T05:41:56.277Z,8.00
2018-03-07T05:42:56.311Z,12.00
2018-03-07T05:44:49.310Z,16.00
2018-03-07T05:45:49.348Z,20.00
2018-03-07T05:47:42.336Z,20.00
2018-03-07T05:48:42.393Z,28.00
2018-03-07T05:50:35.394Z,36.00
2018-03-07T05:51:35.432Z,44.00
2018-03-07T05:53:28.423Z,56.00
2018-03-07T05:54:28.480Z,64.00
2018-03-07T05:56:21.483Z,80.00
2018-03-07T05:57:21.520Z,88.00
2018-03-07T05:59:14.504Z,112.00
2018-03-07T06:00:14.558Z,120.00
2018-03-07T06:02:07.559Z,144.00
2018-03-07T06:03:07.595Z,160.00
2018-03-07T06:05:00.597Z,192.00
2018-03-07T06:06:00.635Z,208.00
2018-03-07T06:07:53.611Z,248.00
2018-03-07T06:08:53.665Z,268.00
2018-03-07T06:10:46.670Z,312.00
2018-03-07T06:11:46.704Z,336.00
2018-03-07T06:13:39.689Z,380.00
2018-03-07T06:14:39.746Z,412.00
2018-03-07T06:16:32.741Z,456.00
2018-03-07T06:17:32.778Z,480.00
2018-03-07T06:19:26.273Z,540.00
2018-03-07T06:20:26.382Z,572.00
2018-03-07T06:22:19.335Z,640.00
2018-03-07T06:23:19.369Z,672.00
2018-03-07T06:25:12.373Z,740.00
2018-03-07T06:26:12.410Z,776.00
2018-03-07T06:28:05.388Z,852.00
2018-03-07T06:29:05.444Z,892.00
2018-03-07T06:30:58.445Z,992.00
2018-03-07T06:31:58.479Z,1044.00
2018-03-07T06:33:51.463Z,1168.00
2018-03-07T06:34:51.514Z,1240.00
2018-03-07T06:36:44.517Z,1404.00
2018-03-07T06:37:44.552Z,1504.00
2018-03-07T06:39:37.535Z,1660.00
2018-03-07T06:40:37.588Z,1628.00
2018-03-07T06:42:30.584Z,1812.00
2018-03-07T06:43:30.622Z,1952.00
2018-03-07T06:45:23.625Z,2048.00
2018-03-07T06:46:23.676Z,2156.00
2018-03-07T06:48:16.638Z,2380.00
2018-03-07T06:49:16.694Z,2532.00
2018-03-07T06:51:09.699Z,2796.00
2018-03-07T06:52:09.736Z,2860.00
2018-03-07T06:54:02.712Z,2944.00
2018-03-07T06:55:02.769Z,2928.00
2018-03-07T06:56:55.767Z,3020.00
2018-03-07T06:57:55.803Z,3068.00
2018-03-07T06:59:48.778Z,3204.00
2018-03-07T07:00:48.834Z,3252.00
2018-03-07T07:02:41.842Z,3680.00
2018-03-07T07:03:41.880Z,3808.00
2018-03-07T07:05:34.878Z,4148.00
2018-03-07T07:06:34.916Z,4308.00
2018-03-07T07:08:27.896Z,4616.00
2018-03-07T07:09:28.000Z,4800.00
2018-03-07T07:11:20.952Z,5356.00
2018-03-07T07:12:20.990Z,5472.00
2018-03-07T07:14:13.968Z,5412.00
2018-03-07T07:15:14.024Z,5360.00
2018-03-07T07:17:07.032Z,5468.00
2018-03-07T07:18:07.065Z,5424.00
2018-03-07T07:20:00.049Z,5056.00
2018-03-07T07:21:00.106Z,4748.00
2018-03-07T07:22:53.113Z,4200.00
2018-03-07T07:23:53.150Z,4824.00
2018-03-07T07:25:46.160Z,5552.00
2018-03-07T07:26:46.197Z,5380.00
2018-03-07T07:28:39.176Z,5140.00
2018-03-07T07:29:39.233Z,5064.00
2018-03-07T07:31:32.237Z,5628.00
2018-03-07T07:32:32.274Z,6104.00
2018-03-07T07:34:25.262Z,8056.00
2018-03-07T07:35:25.318Z,7380.00
2018-03-07T07:37:18.336Z,7440.00
2018-03-07T07:38:18.362Z,6956.00
2018-03-07T07:40:11.349Z,18752.00
2018-03-07T07:41:11.407Z,16960.00
2018-03-07T07:43:04.414Z,18880.00
2018-03-07T07:44:04.454Z,18432.00
2018-03-07T07:45:57.460Z,18400.00
2018-03-07T07:46:57.489Z,18112.00
2018-03-07T07:48:50.479Z,15264.00
2018-03-07T07:49:50.540Z,10924.00
2018-03-07T07:51:43.550Z,12144.00
2018-03-07T07:52:43.588Z,16960.00
2018-03-07T07:54:36.580Z,15840.00
2018-03-07T07:55:36.641Z,10948.00
2018-03-07T07:57:29.647Z,10288.00
2018-03-07T07:58:29.687Z,11788.00
2018-03-07T08:00:22.676Z,9764.00
2018-03-07T08:01:22.739Z,10300.00
2018-03-07T08:03:15.759Z,12352.00
2018-03-07T08:04:15.800Z,12656.00
2018-03-07T08:06:08.812Z,12836.00
2018-03-07T08:07:08.854Z,16128.00
2018-03-07T08:09:01.848Z,16416.00
2018-03-07T08:10:01.908Z,16928.00
2018-03-07T08:11:54.919Z,16320.00
2018-03-07T08:12:54.961Z,16128.00
2018-03-07T08:14:47.953Z,14784.00
2018-03-07T08:15:48.025Z,14880.00
2018-03-07T08:17:41.026Z,14848.00
2018-03-07T08:18:41.069Z,14784.00
2018-03-07T08:20:34.065Z,14216.00
2018-03-07T08:21:34.129Z,14200.00
2018-03-07T08:23:27.152Z,14656.00
2018-03-07T08:24:27.197Z,14432.00
2018-03-07T08:26:20.210Z,13764.00
2018-03-07T08:27:20.256Z,13632.00
2018-03-07T08:29:13.254Z,13108.00
2018-03-07T08:30:13.320Z,12764.00
2018-03-07T08:32:06.332Z,12972.00
2018-03-07T08:33:06.374Z,12692.00
2018-03-07T08:34:59.369Z,12308.00
2018-03-07T08:35:59.431Z,12176.00
2018-03-07T08:37:52.448Z,12208.00
2018-03-07T08:38:52.494Z,12112.00
2018-03-07T08:40:45.494Z,11964.00
2018-03-07T08:41:45.554Z,11832.00
2018-03-07T08:43:38.572Z,11740.00
2018-03-07T08:44:38.619Z,11696.00
2018-03-07T08:46:31.635Z,11708.00
2018-03-07T08:47:31.679Z,11696.00
2018-03-07T08:49:24.676Z,11580.00
2018-03-07T08:50:24.742Z,11520.00
2018-03-07T08:52:17.760Z,11348.00
2018-03-07T08:53:17.811Z,11168.00
2018-03-07T08:55:10.852Z,10596.00
2018-03-07T08:56:10.872Z,10380.00
2018-03-07T08:58:03.896Z,9816.00
2018-03-07T08:59:03.942Z,9724.00
2018-03-07T09:00:56.945Z,9164.00
2018-03-07T09:01:57.012Z,8556.00
2018-03-07T09:03:50.032Z,6472.00
2018-03-07T09:04:50.084Z,5320.00
2018-03-07T09:06:43.100Z,4860.00
2018-03-07T09:07:43.146Z,4888.00
2018-03-07T09:09:36.158Z,4844.00
2018-03-07T09:10:36.204Z,4860.00
2018-03-07T09:12:29.223Z,4564.00
2018-03-07T09:13:29.268Z,4528.00
2018-03-07T09:15:22.264Z,4460.00
2018-03-07T09:16:22.321Z,4348.00
2018-03-07T09:18:15.334Z,4364.00
2018-03-07T09:19:15.375Z,4408.00
2018-03-07T09:21:08.370Z,4292.00
2018-03-07T09:22:08.435Z,4336.00
2018-03-07T09:24:01.450Z,4228.00
2018-03-07T09:25:01.492Z,4316.00
2018-03-07T09:26:54.502Z,4184.00
2018-03-07T09:27:54.545Z,4200.00
2018-03-07T09:29:47.558Z,4232.00
2018-03-07T09:30:47.598Z,4208.00
2018-03-07T09:32:40.618Z,4176.00
2018-03-07T09:33:40.655Z,4096.00
2018-03-07T09:35:33.646Z,4104.00
2018-03-07T09:36:33.708Z,4104.00
2018-03-07T09:38:26.726Z,4152.00
2018-03-07T09:39:26.765Z,4168.00
2018-03-07T09:41:19.750Z,4092.00
2018-03-07T09:42:19.812Z,4028.00
2018-03-07T09:44:12.831Z,4008.00
2018-03-07T09:45:12.871Z,4044.00
2018-03-07T09:47:05.880Z,4108.00
2018-03-07T09:48:05.922Z,4164.00
2018-03-07T09:49:58.938Z,4220.00
2018-03-07T09:50:58.978Z,4236.00
2018-03-07T09:52:51.991Z,4268.00
2018-03-07T09:53:52.024Z,4292.00
2018-03-07T09:55:45.025Z,4304.00
2018-03-07T09:56:45.082Z,4332.00
2018-03-07T09:58:38.098Z,4248.00
2018-03-07T09:59:38.139Z,4160.00
2018-03-07T10:01:31.128Z,4188.00
2018-03-07T10:02:31.190Z,4228.00
2018-03-07T10:04:24.207Z,4340.00
2018-03-07T10:05:24.234Z,4424.00
2018-03-07T10:07:17.248Z,4560.00
2018-03-07T10:08:17.289Z,4612.00
2018-03-07T10:10:10.304Z,4692.00
2018-03-07T10:11:10.350Z,4708.00
2018-03-07T10:13:03.356Z,4768.00
2018-03-07T10:14:03.398Z,4804.00
2018-03-07T10:15:56.385Z,4844.00
2018-03-07T10:16:56.444Z,4840.00
2018-03-07T10:18:49.459Z,4860.00
2018-03-07T10:19:49.501Z,4872.00
2018-03-07T10:21:42.489Z,4812.00
2018-03-07T10:22:42.545Z,4764.00
2018-03-07T10:24:35.549Z,4692.00
2018-03-07T10:25:35.594Z,4676.00
2018-03-07T10:27:28.598Z,4656.00
2018-03-07T10:28:28.642Z,4644.00
2018-03-07T10:30:21.646Z,4636.00
2018-03-07T10:31:21.688Z,4636.00
2018-03-07T10:33:14.700Z,4644.00
2018-03-07T10:34:14.744Z,4652.00
2018-03-07T10:36:07.731Z,4692.00
2018-03-07T10:37:07.792Z,4696.00
2018-03-07T10:39:00.801Z,4664.00
2018-03-07T10:40:00.844Z,4648.00
2018-03-07T10:41:53.835Z,4648.00
2018-03-07T10:42:53.896Z,4660.00
2018-03-07T10:44:46.907Z,4684.00
2018-03-07T10:45:46.948Z,4684.00
2018-03-07T10:47:39.937Z,4692.00
2018-03-07T10:48:39.991Z,4696.00
2018-03-07T10:50:33.025Z,4696.00
2018-03-07T10:51:33.044Z,4708.00
2018-03-07T10:53:26.047Z,4736.00
2018-03-07T10:54:26.088Z,4792.00
2018-03-07T10:56:19.077Z,4868.00
2018-03-07T10:57:19.135Z,4852.00
2018-03-07T10:59:12.148Z,4832.00
2018-03-07T11:00:12.190Z,4848.00
2018-03-07T11:02:05.179Z,4820.00
2018-03-07T11:03:05.238Z,4696.00
2018-03-07T11:04:58.239Z,4500.00
2018-03-07T11:05:58.280Z,4504.00
2018-03-07T11:07:51.274Z,4492.00
2018-03-07T11:08:51.335Z,4412.00
2018-03-07T11:10:44.339Z,4300.00
2018-03-07T11:11:44.380Z,4300.00
2018-03-07T11:13:37.395Z,4276.00
2018-03-07T11:14:37.454Z,4284.00
2018-03-07T11:16:30.429Z,4296.00
2018-03-07T11:17:30.491Z,4268.00
2018-03-07T11:19:24.013Z,4188.00
2018-03-07T11:20:24.052Z,4140.00
2018-03-07T11:22:17.045Z,4140.00
2018-03-07T11:23:17.106Z,4180.00
2018-03-07T11:25:10.123Z,4260.00
2018-03-07T11:26:10.167Z,4272.00
2018-03-07T11:28:03.155Z,4332.00
2018-03-07T11:29:03.207Z,4388.00
2018-03-07T11:30:56.219Z,4428.00
2018-03-07T11:31:56.258Z,4168.00
2018-03-07T11:33:49.263Z,3736.00
2018-03-07T11:34:49.305Z,3576.00
2018-03-07T11:36:42.290Z,3596.00
2018-03-07T11:37:42.352Z,3516.00
2018-03-07T11:39:35.371Z,3872.00
2018-03-07T11:40:35.402Z,4308.00
2018-03-07T11:42:28.392Z,5316.00
2018-03-07T11:43:28.451Z,5756.00
2018-03-07T11:45:21.460Z,6428.00
2018-03-07T11:46:21.502Z,6984.00
2018-03-07T11:48:14.494Z,8000.00
2018-03-07T11:49:14.563Z,8588.00
2018-03-07T11:51:07.568Z,9540.00
2018-03-07T11:52:07.610Z,9848.00
2018-03-07T11:54:00.618Z,10684.00
2018-03-07T11:55:00.659Z,10848.00
2018-03-07T11:56:53.653Z,10980.00
2018-03-07T11:57:53.715Z,11216.00
2018-03-07T11:59:46.724Z,10816.00
2018-03-07T12:00:46.768Z,10416.00
2018-03-07T12:02:39.764Z,9928.00
2018-03-07T12:03:39.825Z,9836.00
2018-03-07T12:05:32.845Z,9712.00
2018-03-07T12:06:32.888Z,9592.00
2018-03-07T12:08:25.880Z,9660.00
2018-03-07T12:09:25.940Z,9496.00
2018-03-07T12:11:18.952Z,9296.00
2018-03-07T12:12:18.992Z,9304.00
2018-03-07T12:14:11.999Z,8904.00
2018-03-07T12:15:12.039Z,8732.00
2018-03-07T12:17:05.040Z,8656.00
2018-03-07T12:18:05.100Z,8388.00
2018-03-07T12:19:58.624Z,7608.00
2018-03-07T12:20:58.665Z,7384.00
2018-03-07T12:22:51.658Z,7428.00
2018-03-07T12:23:51.721Z,7372.00
2018-03-07T12:25:44.737Z,7040.00
2018-03-07T12:26:44.775Z,7016.00
2018-03-07T12:28:37.780Z,7232.00
2018-03-07T12:29:37.821Z,7404.00
2018-03-07T12:31:30.838Z,7484.00
2018-03-07T12:32:30.883Z,7464.00
2018-03-07T12:34:23.885Z,7260.00
2018-03-07T12:35:23.926Z,7072.00
2018-03-07T12:37:16.917Z,6828.00
2018-03-07T12:38:16.974Z,6768.00
2018-03-07T12:40:09.990Z,6960.00
2018-03-07T12:41:10.032Z,7012.00
2018-03-07T12:43:03.022Z,6580.00
2018-03-07T12:44:03.104Z,6260.00
2018-03-07T12:45:56.092Z,5828.00
2018-03-07T12:46:56.135Z,5664.00
2018-03-07T12:48:49.128Z,5548.00
2018-03-07T12:49:49.190Z,5632.00
2018-03-07T12:51:42.202Z,5796.00
2018-03-07T12:52:42.247Z,5712.00
2018-03-07T12:54:35.255Z,5524.00
2018-03-07T12:55:35.298Z,5404.00
2018-03-07T12:57:28.288Z,5520.00
2018-03-07T12:58:28.349Z,5612.00
2018-03-07T13:00:21.356Z,5488.00
2018-03-07T13:01:21.400Z,5368.00
2018-03-07T13:03:14.390Z,5384.00
2018-03-07T13:04:14.453Z,5404.00
2018-03-07T13:06:07.468Z,4836.00
2018-03-07T13:07:07.511Z,4352.00
2018-03-07T13:09:00.512Z,3700.00
2018-03-07T13:10:00.577Z,3552.00
2018-03-07T13:11:53.578Z,3428.00
2018-03-07T13:12:53.621Z,3360.00
2018-03-07T13:14:46.636Z,3192.00
2018-03-07T13:15:46.677Z,3032.00
2018-03-07T13:17:39.675Z,2652.00
2018-03-07T13:18:39.733Z,2416.00
2018-03-07T13:20:32.738Z,2072.00
2018-03-07T13:21:32.780Z,1952.00
2018-03-07T13:23:25.769Z,2072.00
2018-03-07T13:24:25.829Z,2232.00
2018-03-07T13:26:18.845Z,2292.00
2018-03-07T13:27:18.884Z,2264.00
2018-03-07T13:29:11.875Z,2268.00
2018-03-07T13:30:11.932Z,2248.00
2018-03-07T13:32:04.938Z,2092.00
2018-03-07T13:33:04.980Z,1968.00
2018-03-07T13:34:57.996Z,1592.00
2018-03-07T13:35:58.039Z,1364.00
2018-03-07T13:37:51.028Z,1116.00
2018-03-07T13:38:51.104Z,1072.00
2018-03-07T13:40:44.091Z,992.00
2018-03-07T13:41:44.133Z,936.00
2018-03-07T13:43:37.122Z,864.00
2018-03-07T13:44:37.226Z,820.00
2018-03-07T13:46:30.201Z,768.00
2018-03-07T13:47:30.241Z,764.00
2018-03-07T13:49:23.230Z,784.00
2018-03-07T13:50:23.284Z,784.00
2018-03-07T13:52:16.289Z,848.00
2018-03-07T13:53:16.332Z,884.00
2018-03-07T13:55:09.343Z,880.00
2018-03-07T13:56:09.383Z,904.00
2018-03-07T13:58:02.391Z,1016.00
2018-03-07T13:59:02.438Z,1060.00
2018-03-07T14:00:55.456Z,1132.00
2018-03-07T14:01:55.496Z,1124.00
2018-03-07T14:03:48.483Z,1020.00
2018-03-07T14:04:48.544Z,1032.00
2018-03-07T14:06:41.547Z,1136.00
2018-03-07T14:07:41.586Z,1208.00
2018-03-07T14:09:34.569Z,1352.00
2018-03-07T14:10:34.632Z,1436.00
2018-03-07T14:12:27.644Z,1320.00
2018-03-07T14:13:27.684Z,1184.00
2018-03-07T14:15:20.686Z,1168.00
2018-03-07T14:16:20.725Z,1320.00
2018-03-07T14:18:13.714Z,1408.00
2018-03-07T14:19:13.771Z,1520.00
2018-03-07T14:21:06.772Z,1452.00
2018-03-07T14:22:06.811Z,1372.00
2018-03-07T14:23:59.804Z,1608.00
2018-03-07T14:24:59.863Z,1784.00
2018-03-07T14:26:52.877Z,1860.00
2018-03-07T14:27:52.915Z,1892.00
2018-03-07T14:29:45.905Z,1992.00
2018-03-07T14:30:45.966Z,2048.00
2018-03-07T14:32:38.984Z,2028.00
2018-03-07T14:33:39.023Z,2060.00
2018-03-07T14:35:32.040Z,2228.00
2018-03-07T14:36:32.081Z,2344.00
2018-03-07T14:38:25.072Z,2680.00
2018-03-07T14:39:25.167Z,2968.00
2018-03-07T14:41:18.137Z,3692.00
2018-03-07T14:42:18.177Z,4048.00
2018-03-07T14:44:11.164Z,4252.00
2018-03-07T14:45:11.223Z,4260.00
2018-03-07T14:47:04.237Z,4244.00
2018-03-07T14:48:04.275Z,4080.00
2018-03-07T14:49:57.267Z,4304.00
2018-03-07T14:50:57.327Z,4300.00
2018-03-07T14:52:50.338Z,4172.00
2018-03-07T14:53:50.375Z,4044.00
2018-03-07T14:55:43.382Z,4140.00
2018-03-07T14:56:43.422Z,4232.00
2018-03-07T14:58:36.404Z,3696.00
2018-03-07T14:59:36.468Z,3424.00
2018-03-07T15:01:29.476Z,2488.00
2018-03-07T15:02:29.515Z,2496.00
2018-03-07T15:04:22.503Z,2600.00
2018-03-07T15:05:22.558Z,2604.00
2018-03-07T15:07:15.568Z,3440.00
2018-03-07T15:08:15.608Z,3784.00
2018-03-07T15:10:08.603Z,3244.00
2018-03-07T15:11:08.659Z,3108.00
2018-03-07T15:13:01.662Z,3132.00
2018-03-07T15:14:01.701Z,3104.00
2018-03-07T15:15:54.704Z,2732.00
2018-03-07T15:16:54.745Z,2588.00
2018-03-07T15:18:47.735Z,2724.00
2018-03-07T15:19:47.798Z,2884.00
2018-03-07T15:21:40.799Z,3120.00
2018-03-07T15:22:40.836Z,3180.00
2018-03-07T15:24:33.822Z,3264.00
2018-03-07T15:25:33.879Z,3252.00
2018-03-07T15:27:26.885Z,3300.00
2018-03-07T15:28:26.925Z,3780.00
2018-03-07T15:30:19.906Z,4208.00
2018-03-07T15:31:19.970Z,4196.00
2018-03-07T15:33:12.976Z,4412.00
2018-03-07T15:34:13.016Z,4304.00
2018-03-07T15:36:06.022Z,4184.00
2018-03-07T15:37:06.062Z,4448.00
2018-03-07T15:38:59.051Z,4448.00
2018-03-07T15:39:59.111Z,4232.00
2018-03-07T15:41:52.130Z,3856.00
2018-03-07T15:42:52.169Z,3600.00
2018-03-07T15:44:45.155Z,2996.00
2018-03-07T15:45:45.214Z,2768.00
2018-03-07T15:47:38.218Z,2520.00
2018-03-07T15:48:38.258Z,2316.00
2018-03-07T15:50:31.247Z,1992.00
2018-03-07T15:51:31.315Z,1684.00
2018-03-07T15:53:24.314Z,1144.00
2018-03-07T15:54:24.350Z,948.00
2018-03-07T15:56:17.373Z,724.00
2018-03-07T15:57:17.397Z,664.00
2018-03-07T15:59:10.385Z,628.00
2018-03-07T16:00:10.453Z,608.00
2018-03-07T16:02:03.455Z,584.00
2018-03-07T16:03:03.496Z,612.00
2018-03-07T16:04:56.487Z,620.00
2018-03-07T16:05:56.551Z,608.00
2018-03-07T16:07:49.556Z,688.00
2018-03-07T16:08:49.596Z,740.00
2018-03-07T16:10:42.580Z,592.00
2018-03-07T16:11:42.638Z,548.00
2018-03-07T16:13:35.649Z,536.00
2018-03-07T16:14:35.690Z,536.00
2018-03-07T16:16:28.698Z,500.00
2018-03-07T16:17:28.740Z,480.00
2018-03-07T16:19:22.241Z,456.00
2018-03-07T16:20:22.301Z,488.00
2018-03-07T16:22:15.315Z,720.00
2018-03-07T16:23:15.374Z,728.00
2018-03-07T16:25:08.342Z,700.00
2018-03-07T16:26:08.402Z,632.00
2018-03-07T16:28:01.409Z,616.00
2018-03-07T16:29:01.446Z,628.00
2018-03-07T16:30:54.434Z,588.00
2018-03-07T16:31:54.494Z,552.00
2018-03-07T16:33:47.498Z,492.00
2018-03-07T16:34:47.538Z,492.00
2018-03-07T16:36:40.546Z,496.00
2018-03-07T16:37:40.587Z,484.00
2018-03-07T16:39:33.587Z,460.00
2018-03-07T16:40:33.646Z,460.00
2018-03-07T16:42:26.666Z,416.00
2018-03-07T16:43:26.706Z,380.00
2018-03-07T16:45:19.706Z,444.00
2018-03-07T16:46:19.765Z,488.00
2018-03-07T16:48:12.774Z,404.00
2018-03-07T16:49:12.813Z,352.00
2018-03-07T16:51:05.819Z,276.00
2018-03-07T16:52:05.855Z,264.00
2018-03-07T16:53:58.859Z,236.00
2018-03-07T16:54:58.899Z,204.00
2018-03-07T16:56:51.903Z,200.00
2018-03-07T16:57:51.942Z,188.00
2018-03-07T16:59:44.928Z,180.00
2018-03-07T17:00:44.989Z,184.00
2018-03-07T17:02:37.993Z,180.00
2018-03-07T17:03:38.031Z,176.00
2018-03-07T17:05:31.018Z,132.00
2018-03-07T17:06:31.070Z,116.00
2018-03-07T17:08:24.079Z,108.00
2018-03-07T17:09:24.118Z,112.00
2018-03-07T17:11:17.611Z,116.00
2018-03-07T17:12:17.668Z,112.00
2018-03-07T17:14:10.675Z,100.00
2018-03-07T17:15:10.713Z,96.00
2018-03-07T17:17:03.724Z,92.00
2018-03-07T17:18:03.760Z,84.00
2018-03-07T17:19:56.748Z,68.00
2018-03-07T17:20:56.809Z,60.00
2018-03-07T17:22:49.813Z,44.00
2018-03-07T17:23:49.852Z,32.00
2018-03-07T17:25:42.839Z,20.00
2018-03-07T17:26:42.895Z,20.00
2018-03-07T17:28:56.929Z,16.00
2018-03-07T17:30:28.865Z,12.00
2018-03-07T17:31:28.924Z,12.00
2018-03-07T17:33:21.930Z,8.00
2018-03-07T17:34:21.968Z,4.00
2018-03-07T17:36:14.957Z,4.00
2018-03-07T17:37:15.016Z,4.00
2018-03-07T17:39:08.019Z,0.00
2018-03-07T17:40:08.064Z,4.00
2018-03-07T17:42:01.066Z,4.00
2018-03-07T17:43:01.100Z,4.00
2018-03-07T17:44:54.109Z,0.00
2018-03-07T17:45:54.149Z,0.00
2018-03-07T17:47:47.157Z,0.00
2018-03-07T17:48:47.197Z,0.00
2018-03-07T17:50:40.177Z,0.00
2018-03-07T17:51:40.237Z,0.00
2018-03-07T17:53:33.249Z,0.00
2018-03-07T17:54:33.287Z,0.00
2018-03-07T17:56:26.273Z,0.00
2018-03-07T17:57:26.338Z,0.00
2018-03-07T17:59:19.337Z,0.00
2018-03-07T18:00:19.372Z,0.00
2018-03-07T18:02:12.372Z,0.00
2018-03-07T18:03:12.410Z,0.00
2018-03-07T18:05:05.412Z,0.00